createdAt,value
2023-08-14T00:01:16.978Z,11.07
2023-08-14T00:03:46.870Z,6.35
2023-08-14T00:06:26.616Z,8.10
2023-08-14T00:09:00.427Z,7.90
2023-08-14T00:17:30.990Z,5.28
2023-08-14T00:20:19.107Z,9.20
2023-08-14T00:25:58.046Z,9.23
2023-08-14T00:28:59.583Z,5.18
2023-08-14T00:31:45.706Z,9.90
2023-08-14T00:34:24.665Z,6.97
2023-08-14T00:37:13.727Z,6.80
2023-08-14T00:43:02.311Z,7.90
2023-08-14T00:45:57.451Z,7.82
2023-08-14T00:48:48.683Z,7.13
2023-08-14T00:51:17.230Z,9.02
2023-08-14T00:53:57.461Z,4.80
2023-08-14T00:56:50.016Z,6.03
2023-08-14T01:02:11.668Z,7.38
2023-08-14T01:04:53.743Z,11.13
2023-08-14T01:07:41.365Z,10.45
2023-08-14T01:10:23.749Z,3.28
2023-08-14T01:13:21.675Z,7.30
2023-08-14T01:15:51.682Z,8.13
2023-08-14T01:19:24.543Z,5.97
2023-08-14T01:25:07.756Z,4.75
2023-08-14T01:28:23.303Z,8.15
2023-08-14T01:41:05.039Z,6.75
2023-08-14T01:46:46.996Z,3.40
2023-08-14T01:49:27.730Z,6.30
2023-08-14T01:52:16.663Z,6.03
2023-08-14T01:54:46.956Z,4.18
2023-08-14T01:57:13.887Z,6.05
2023-08-14T01:59:58.435Z,7.63
2023-08-14T02:02:36.370Z,3.42
2023-08-14T02:05:24.446Z,6.43
2023-08-14T02:08:08.262Z,5.80
2023-08-14T02:11:14.078Z,4.63
2023-08-14T02:14:00.197Z,3.33
2023-08-14T02:16:55.159Z,7.78
2023-08-14T02:19:40.202Z,6.78
2023-08-14T02:23:00.854Z,7.25
2023-08-14T02:27:08.034Z,7.10
2023-08-14T02:29:39.464Z,5.45
2023-08-14T02:32:38.348Z,4.65
2023-08-14T02:38:32.001Z,6.90
2023-08-14T02:41:26.536Z,6.40
2023-08-14T02:44:15.337Z,6.40
2023-08-14T02:46:50.206Z,4.68
2023-08-14T02:49:52.847Z,7.50
2023-08-14T02:55:53.996Z,8.52
2023-08-14T03:02:16.755Z,8.02
2023-08-14T03:14:26.641Z,8.70
2023-08-14T03:17:19.553Z,6.93
2023-08-14T03:23:20.941Z,5.95
2023-08-14T03:31:41.029Z,6.75
2023-08-14T03:34:30.200Z,6.25
2023-08-14T03:40:15.418Z,8.05
2023-08-14T03:43:16.379Z,8.07
2023-08-14T03:45:52.794Z,7.43
2023-08-14T03:48:40.428Z,6.47
2023-08-14T03:51:15.794Z,11.30
2023-08-14T03:54:07.469Z,10.32
2023-08-14T03:56:50.308Z,6.35
2023-08-14T04:00:05.353Z,10.10
2023-08-14T04:03:08.021Z,8.38
2023-08-14T04:06:05.163Z,7.82
2023-08-14T04:08:39.501Z,5.85
2023-08-14T04:11:10.834Z,10.63
2023-08-14T04:13:52.917Z,6.72
2023-08-14T04:16:49.719Z,7.72
2023-08-14T04:23:16.370Z,8.85
2023-08-14T04:25:30.321Z,10.75
2023-08-14T04:31:08.019Z,9.25
2023-08-14T04:36:42.956Z,8.13
2023-08-14T04:51:28.009Z,7.28
2023-08-14T04:54:11.257Z,7.03
2023-08-14T04:59:34.177Z,7.95
2023-08-14T05:02:13.480Z,6.88
2023-08-14T05:07:30.456Z,9.65
2023-08-14T05:13:15.286Z,7.35
2023-08-14T05:16:14.995Z,5.97
2023-08-14T05:18:53.158Z,6.05
2023-08-14T05:21:39.477Z,4.93
2023-08-14T05:24:16.907Z,4.45
2023-08-14T05:26:52.854Z,7.55
2023-08-14T05:30:16.784Z,6.90
2023-08-14T05:35:38.612Z,4.75
2023-08-14T05:38:25.168Z,6.55
2023-08-14T05:41:10.646Z,6.93
2023-08-14T05:44:03.557Z,6.20
2023-08-14T05:49:19.258Z,8.32
2023-08-14T05:52:08.912Z,4.78
2023-08-14T05:54:49.391Z,5.85
2023-08-14T05:57:27.095Z,5.88
2023-08-14T06:00:32.705Z,4.40
2023-08-14T06:03:16.508Z,2.83
2023-08-14T06:06:10.862Z,4.80
2023-08-14T06:08:58.351Z,5.63
2023-08-14T06:14:04.250Z,5.88
2023-08-14T06:16:52.251Z,5.05
2023-08-14T06:22:57.304Z,5.15
2023-08-14T06:25:48.168Z,4.22
2023-08-14T06:31:16.308Z,6.73
2023-08-14T06:36:28.837Z,5.50
2023-08-14T06:42:34.448Z,4.17
2023-08-14T06:45:23.576Z,4.10
2023-08-14T06:47:53.106Z,4.55
2023-08-14T06:56:14.453Z,6.70
2023-08-14T06:58:52.537Z,6.68
2023-08-14T07:02:17.830Z,3.43
2023-08-14T07:04:55.290Z,3.53
2023-08-14T07:12:59.586Z,4.25
2023-08-14T07:15:40.186Z,4.03
2023-08-14T07:18:15.464Z,4.82
2023-08-14T07:26:56.038Z,5.75
2023-08-14T07:29:27.943Z,3.63
2023-08-14T07:32:06.247Z,4.35
2023-08-14T07:34:50.458Z,4.70
2023-08-14T07:37:17.242Z,4.30
2023-08-14T07:39:44.093Z,3.35
2023-08-14T07:42:10.659Z,3.50
2023-08-14T07:44:37.840Z,4.68
2023-08-14T07:47:04.676Z,5.90
2023-08-14T07:49:39.593Z,2.58
2023-08-14T07:52:07.100Z,5.40
2023-08-14T07:54:33.945Z,4.65
2023-08-14T07:57:03.712Z,4.95
2023-08-14T07:59:30.327Z,3.13
2023-08-14T08:01:57.255Z,6.78
2023-08-14T08:04:27.096Z,5.68
2023-08-14T08:06:53.950Z,6.40
2023-08-14T08:09:20.840Z,4.10
2023-08-14T08:11:50.139Z,4.85
2023-08-14T08:14:17.393Z,3.33
2023-08-14T08:16:46.915Z,4.60
2023-08-14T08:19:13.691Z,4.28
2023-08-14T08:21:40.320Z,4.15
2023-08-14T08:24:07.367Z,4.20
2023-08-14T08:26:34.354Z,5.60
2023-08-14T08:29:01.502Z,5.22
2023-08-14T08:31:28.565Z,3.70
2023-08-14T08:33:55.378Z,2.63
2023-08-14T08:36:23.126Z,5.32
2023-08-14T08:38:49.918Z,5.10
2023-08-14T08:41:32.543Z,3.67
2023-08-14T08:44:16.017Z,3.95
2023-08-14T08:46:47.875Z,4.40
2023-08-14T08:49:14.909Z,3.45
2023-08-14T08:51:42.244Z,2.47
2023-08-14T08:54:09.624Z,4.97
2023-08-14T08:56:37.610Z,6.18
2023-08-14T08:59:05.096Z,4.60
2023-08-14T09:01:32.286Z,4.30
2023-08-14T09:03:59.108Z,3.42
2023-08-14T09:06:26.235Z,2.63
2023-08-14T09:08:53.120Z,3.08
2023-08-14T09:11:19.827Z,4.95
2023-08-14T09:13:46.901Z,5.68
2023-08-14T09:16:17.107Z,2.85
2023-08-14T09:18:47.265Z,4.55
2023-08-14T09:21:14.740Z,4.88
2023-08-14T09:23:42.245Z,2.45
2023-08-14T09:26:09.344Z,2.67
2023-08-14T09:28:39.885Z,3.70
2023-08-14T09:31:10.954Z,5.15
2023-08-14T09:33:46.949Z,1.73
2023-08-14T09:36:16.639Z,2.53
2023-08-14T09:38:43.372Z,4.32
2023-08-14T09:41:10.377Z,3.63
2023-08-14T09:43:37.445Z,6.63
2023-08-14T09:46:04.508Z,3.40
2023-08-14T09:48:42.108Z,2.85
2023-08-14T09:51:13.076Z,6.10
2023-08-14T09:53:56.571Z,6.47
2023-08-14T09:56:24.027Z,3.88
2023-08-14T09:58:51.532Z,3.85
2023-08-14T10:01:20.812Z,5.15
2023-08-14T10:03:50.422Z,4.53
2023-08-14T10:06:17.426Z,2.75
2023-08-14T10:13:07.380Z,3.42
2023-08-14T10:15:36.336Z,4.65
2023-08-14T10:18:11.132Z,3.17
2023-08-14T10:20:38.659Z,5.45
2023-08-14T10:23:07.703Z,4.90
2023-08-14T10:25:39.420Z,3.17
2023-08-14T10:28:10.520Z,3.70
2023-08-14T10:30:37.480Z,4.22
2023-08-14T10:33:05.003Z,2.63
2023-08-14T10:35:57.165Z,4.38
2023-08-14T10:38:40.247Z,4.40
2023-08-14T10:41:08.412Z,3.80
2023-08-14T10:43:35.095Z,3.55
2023-08-14T10:46:12.468Z,2.65
2023-08-14T10:48:39.718Z,2.97
2023-08-14T10:51:10.519Z,2.75
2023-08-14T10:53:38.158Z,3.17
2023-08-14T10:56:08.566Z,4.33
2023-08-14T10:58:38.238Z,4.72
2023-08-14T11:01:11.623Z,2.83
2023-08-14T11:03:57.409Z,4.28
2023-08-14T11:06:28.073Z,3.42
2023-08-14T11:08:59.900Z,4.82
2023-08-14T11:11:27.574Z,3.53
2023-08-14T11:13:54.690Z,4.10
2023-08-14T11:16:22.014Z,4.30
2023-08-14T11:18:49.121Z,4.93
2023-08-14T11:21:30.756Z,4.47
2023-08-14T11:23:58.611Z,5.95
2023-08-14T11:26:29.696Z,2.92
2023-08-14T11:28:56.326Z,5.13
2023-08-14T11:31:30.874Z,3.50
2023-08-14T11:34:01.452Z,6.50
2023-08-14T11:36:34.583Z,4.38
2023-08-14T11:39:01.772Z,3.78
2023-08-14T11:43:58.112Z,3.00
2023-08-14T11:46:25.206Z,4.18
2023-08-14T11:48:51.894Z,3.08
2023-08-14T11:51:19.503Z,3.33
2023-08-14T11:53:46.499Z,7.47
2023-08-14T11:56:13.563Z,2.58
2023-08-14T11:58:40.646Z,4.30
2023-08-14T12:03:36.168Z,3.88
2023-08-14T12:06:05.175Z,4.78
2023-08-14T12:08:32.022Z,4.97
2023-08-14T12:10:59.122Z,4.50
2023-08-14T12:13:25.947Z,4.15
2023-08-14T12:15:53.381Z,8.57
2023-08-14T12:18:25.622Z,4.28
2023-08-14T12:20:53.595Z,4.40
2023-08-14T12:23:24.348Z,3.58
2023-08-14T12:25:52.087Z,4.65
2023-08-14T12:28:19.853Z,4.60
2023-08-14T12:30:48.131Z,4.45
2023-08-14T12:35:42.030Z,2.75
2023-08-14T12:38:08.663Z,3.53
2023-08-14T12:40:35.814Z,4.15
2023-08-14T12:43:02.802Z,4.35
2023-08-14T12:45:29.453Z,3.80
2023-08-14T12:47:56.164Z,3.22
2023-08-14T12:50:22.881Z,2.40
2023-08-14T12:52:49.581Z,3.20
2023-08-14T12:55:18.925Z,4.78
2023-08-14T12:57:47.794Z,6.60
2023-08-14T13:00:15.828Z,6.25
2023-08-14T13:02:42.512Z,3.80
2023-08-14T13:05:09.316Z,3.55
2023-08-14T13:07:36.519Z,4.75
2023-08-14T13:10:03.788Z,3.58
2023-08-14T13:12:30.445Z,3.08
2023-08-14T13:14:57.230Z,3.92
2023-08-14T13:17:23.996Z,4.63
2023-08-14T13:19:51.580Z,3.40
2023-08-14T13:22:18.581Z,4.10
2023-08-14T13:24:45.391Z,6.18
2023-08-14T13:27:12.003Z,6.15
2023-08-14T13:29:39.005Z,7.07
2023-08-14T13:32:06.280Z,6.50
2023-08-14T13:34:33.277Z,3.78
2023-08-14T13:37:00.011Z,4.43
2023-08-14T13:39:26.654Z,3.22
2023-08-14T13:41:54.181Z,5.38
2023-08-14T13:44:20.870Z,4.43
2023-08-14T13:46:47.679Z,5.90
2023-08-14T13:49:14.280Z,3.97
2023-08-14T13:51:45.694Z,5.50
2023-08-14T13:54:12.685Z,3.28
2023-08-14T13:56:39.453Z,5.43
2023-08-14T13:59:06.208Z,5.07
2023-08-14T14:01:32.961Z,3.13
2023-08-14T14:03:59.555Z,3.78
2023-08-14T14:06:26.232Z,3.08
2023-08-14T14:08:52.893Z,4.78
2023-08-14T14:11:19.491Z,2.85
2023-08-14T14:13:46.191Z,4.25
2023-08-14T14:16:13.113Z,3.30
2023-08-14T14:18:39.740Z,4.38
2023-08-14T14:21:06.620Z,2.42
2023-08-14T14:23:33.360Z,3.88
2023-08-14T14:25:59.982Z,3.47
2023-08-14T14:28:29.765Z,3.33
2023-08-14T14:30:57.070Z,5.43
2023-08-14T14:33:23.617Z,6.13
2023-08-14T14:35:50.190Z,3.40
2023-08-14T14:38:16.818Z,4.50
2023-08-14T14:40:43.427Z,6.85
2023-08-14T14:43:10.093Z,4.45
2023-08-14T14:45:36.757Z,6.05
2023-08-14T14:48:03.916Z,3.47
2023-08-14T14:50:31.205Z,6.35
2023-08-14T14:52:58.819Z,5.93
2023-08-14T14:55:28.550Z,3.67
2023-08-14T14:57:55.289Z,6.28
2023-08-14T15:00:22.192Z,4.82
2023-08-14T15:02:48.996Z,4.00
2023-08-14T15:05:27.601Z,5.55
2023-08-14T15:07:56.034Z,4.75
2023-08-14T15:10:22.716Z,4.88
2023-08-14T15:12:49.448Z,5.47
2023-08-14T15:15:16.162Z,6.03
2023-08-14T15:17:44.965Z,3.85
2023-08-14T15:20:16.659Z,4.28
2023-08-14T15:22:46.252Z,6.05
2023-08-14T15:25:13.300Z,5.00
2023-08-14T15:27:39.987Z,5.72
2023-08-14T15:32:53.998Z,3.95
2023-08-14T15:35:21.078Z,5.63
2023-08-14T15:37:47.892Z,5.60
2023-08-14T15:40:14.754Z,4.07
2023-08-14T15:42:41.415Z,4.88
2023-08-14T15:45:09.191Z,4.70
2023-08-14T15:47:37.154Z,3.88
2023-08-14T15:50:05.057Z,5.75
2023-08-14T15:52:32.139Z,6.90
2023-08-14T15:54:59.761Z,7.25
2023-08-14T15:57:26.998Z,5.20
2023-08-14T15:59:54.096Z,5.13
2023-08-14T16:02:22.578Z,4.85
2023-08-14T16:04:52.206Z,4.78
2023-08-14T16:07:19.453Z,6.55
2023-08-14T16:09:50.446Z,4.88
2023-08-14T16:12:17.155Z,10.93
2023-08-14T16:14:43.810Z,4.72
2023-08-14T16:17:11.866Z,7.43
2023-08-14T16:19:39.005Z,5.18
2023-08-14T16:22:06.026Z,5.90
2023-08-14T16:24:32.899Z,6.30
2023-08-14T16:27:00.610Z,10.40
2023-08-14T16:29:27.506Z,5.05
2023-08-14T16:31:54.218Z,4.90
2023-08-14T16:34:21.069Z,5.43
2023-08-14T16:36:47.802Z,6.75
2023-08-14T16:39:16.169Z,5.00
2023-08-14T16:41:44.734Z,4.85
2023-08-14T16:44:12.375Z,5.70
2023-08-14T16:46:39.484Z,6.35
2023-08-14T16:49:08.253Z,7.00
2023-08-14T16:51:34.915Z,4.68
2023-08-14T16:54:01.527Z,5.70
2023-08-14T16:56:28.164Z,6.45
2023-08-14T16:58:54.778Z,4.38
2023-08-14T17:01:21.626Z,6.13
2023-08-14T17:03:48.222Z,8.38
2023-08-14T17:06:14.924Z,4.30
2023-08-14T17:08:41.631Z,4.47
2023-08-14T17:11:08.312Z,7.15
2023-08-14T17:13:34.960Z,8.20
2023-08-14T17:16:01.975Z,7.60
2023-08-14T17:18:29.139Z,7.32
2023-08-14T17:20:55.753Z,7.40
2023-08-14T17:23:22.409Z,6.03
2023-08-14T17:25:59.352Z,7.82
2023-08-14T17:28:28.184Z,6.18
2023-08-14T17:30:58.895Z,6.20
2023-08-14T17:33:26.160Z,6.40
2023-08-14T17:35:53.071Z,7.22
2023-08-14T17:38:19.704Z,6.18
2023-08-14T17:40:53.484Z,5.68
2023-08-14T17:43:20.627Z,9.07
2023-08-14T17:45:50.148Z,6.07
2023-08-14T17:48:17.066Z,6.70
2023-08-14T17:50:43.764Z,7.03
2023-08-14T17:53:11.390Z,4.55
2023-08-14T17:55:38.512Z,6.05
2023-08-14T17:58:05.208Z,4.55
2023-08-14T18:00:31.921Z,7.40
2023-08-14T18:02:58.569Z,6.35
2023-08-14T18:05:25.618Z,6.78
2023-08-14T18:07:52.309Z,5.50
2023-08-14T18:10:19.739Z,7.05
2023-08-14T18:12:46.565Z,5.80
2023-08-14T18:15:13.240Z,7.70
2023-08-14T18:17:40.213Z,5.35
2023-08-14T18:20:08.724Z,6.07
2023-08-14T18:22:35.496Z,5.65
2023-08-14T18:25:02.164Z,6.20
2023-08-14T18:27:29.294Z,7.55
2023-08-14T18:29:56.047Z,6.75
2023-08-14T18:32:23.411Z,5.35
2023-08-14T18:34:50.002Z,9.82
2023-08-14T18:37:16.629Z,9.10
2023-08-14T18:39:43.261Z,10.20
2023-08-14T18:42:09.886Z,6.90
2023-08-14T18:44:36.500Z,7.35
2023-08-14T18:47:03.220Z,7.97
2023-08-14T18:49:30.726Z,9.88
2023-08-14T18:51:57.372Z,10.57
2023-08-14T18:54:24.103Z,6.60
2023-08-14T18:56:50.688Z,8.70
2023-08-14T18:59:23.328Z,10.10
2023-08-14T19:01:51.077Z,5.68
2023-08-14T19:04:25.611Z,11.35
2023-08-14T19:06:56.082Z,8.27
2023-08-14T19:09:22.643Z,7.72
2023-08-14T19:11:49.307Z,8.35
2023-08-14T19:14:15.992Z,9.10
2023-08-14T19:16:42.748Z,8.18
2023-08-14T19:19:09.568Z,10.68
2023-08-14T19:21:36.258Z,8.13
2023-08-14T19:24:02.955Z,11.43
2023-08-14T19:26:29.535Z,10.88
2023-08-14T19:28:56.217Z,11.15
2023-08-14T19:31:23.803Z,10.27
2023-08-14T19:33:51.188Z,10.40
2023-08-14T19:36:17.883Z,6.75
2023-08-14T19:38:44.562Z,9.98
2023-08-14T19:41:11.152Z,13.18
2023-08-14T19:43:37.777Z,12.43
2023-08-14T19:46:04.597Z,20.38
2023-08-14T19:48:31.469Z,15.23
2023-08-14T19:50:58.467Z,16.23
2023-08-14T19:53:25.112Z,8.50
2023-08-14T19:55:52.591Z,11.90
2023-08-14T19:58:19.304Z,10.15
2023-08-14T20:00:45.950Z,7.70
2023-08-14T20:03:12.810Z,10.90
2023-08-14T20:05:42.284Z,8.48
2023-08-14T20:08:08.915Z,10.07
2023-08-14T20:10:35.530Z,8.70
2023-08-14T20:13:02.136Z,10.68
2023-08-14T20:15:28.712Z,10.48
2023-08-14T20:17:55.482Z,12.85
2023-08-14T20:20:22.158Z,22.85
2023-08-14T20:22:48.907Z,11.38
2023-08-14T20:25:15.751Z,17.02
2023-08-14T20:27:42.679Z,16.77
2023-08-14T20:30:09.947Z,11.32
2023-08-14T20:32:36.952Z,13.25
2023-08-14T20:35:08.583Z,10.98
2023-08-14T20:37:35.354Z,11.70
2023-08-14T20:40:02.298Z,12.10
2023-08-14T20:42:29.017Z,13.25
2023-08-14T20:44:55.606Z,12.75
2023-08-14T20:47:22.555Z,11.23
2023-08-14T20:49:49.280Z,15.13
2023-08-14T20:52:15.984Z,12.05
2023-08-14T20:54:42.602Z,11.60
2023-08-14T20:57:09.249Z,11.93
2023-08-14T20:59:37.320Z,11.10
2023-08-14T21:02:04.014Z,13.88
2023-08-14T21:04:30.610Z,11.75
2023-08-14T21:06:57.302Z,10.95
2023-08-14T21:09:23.928Z,11.70
2023-08-14T21:11:50.614Z,12.35
2023-08-14T21:14:17.588Z,10.48
2023-08-14T21:16:44.284Z,12.35
2023-08-14T21:19:11.006Z,11.18
2023-08-14T21:21:37.685Z,10.55
2023-08-14T21:24:04.727Z,12.70
2023-08-14T21:26:31.581Z,11.48
2023-08-14T21:28:58.393Z,11.13
2023-08-14T21:31:24.970Z,9.90
2023-08-14T21:33:52.296Z,9.02
2023-08-14T21:36:19.146Z,12.13
2023-08-14T21:38:45.751Z,12.55
2023-08-14T21:41:12.496Z,10.18
2023-08-14T21:43:39.877Z,13.50
2023-08-14T21:46:06.665Z,12.43
2023-08-14T21:48:33.633Z,10.93
2023-08-14T21:51:00.298Z,11.75
2023-08-14T21:53:26.907Z,18.88
2023-08-14T21:55:53.555Z,10.73
2023-08-14T21:58:20.126Z,9.82
2023-08-14T22:00:47.373Z,12.30
2023-08-14T22:03:13.959Z,11.70
2023-08-14T22:05:41.234Z,12.38
2023-08-14T22:08:07.777Z,16.58
2023-08-14T22:10:34.690Z,13.23
2023-08-14T22:13:01.280Z,13.23
2023-08-14T22:15:44.119Z,14.52
2023-08-14T22:18:13.683Z,11.02
2023-08-14T22:20:40.955Z,12.35
2023-08-14T22:23:07.503Z,15.75
2023-08-14T22:25:34.264Z,13.57
2023-08-14T22:28:00.872Z,14.57
2023-08-14T22:30:27.474Z,12.63
2023-08-14T22:32:54.151Z,11.10
2023-08-14T22:35:20.874Z,16.85
2023-08-14T22:37:47.468Z,9.50
2023-08-14T22:40:14.391Z,12.43
2023-08-14T22:42:40.978Z,11.05
2023-08-14T22:45:08.846Z,11.25
2023-08-14T22:47:35.557Z,11.20
2023-08-14T22:50:02.156Z,10.20
2023-08-14T22:52:28.759Z,15.02
2023-08-14T22:54:55.430Z,11.85
2023-08-14T22:57:22.427Z,10.82
2023-08-14T22:59:49.272Z,11.15
2023-08-14T23:02:15.959Z,8.70
2023-08-14T23:04:42.550Z,7.53
2023-08-14T23:07:09.182Z,10.80
2023-08-14T23:09:35.797Z,8.88
2023-08-14T23:12:02.475Z,10.75
2023-08-14T23:14:29.113Z,9.60
2023-08-14T23:16:55.797Z,10.32
2023-08-14T23:19:23.007Z,11.15
2023-08-14T23:21:49.610Z,8.35
2023-08-14T23:24:16.328Z,10.93
2023-08-14T23:26:42.966Z,11.25
2023-08-14T23:29:09.597Z,10.25
2023-08-14T23:31:36.241Z,10.95
2023-08-14T23:34:03.012Z,8.93
2023-08-14T23:36:30.724Z,12.27
2023-08-14T23:38:57.391Z,10.95
2023-08-14T23:41:23.987Z,10.13
2023-08-14T23:43:50.587Z,9.57
2023-08-14T23:46:17.373Z,11.48
2023-08-14T23:48:43.928Z,12.02
2023-08-14T23:51:10.463Z,11.30
2023-08-14T23:53:37.071Z,11.77
2023-08-14T23:56:03.674Z,11.13
2023-08-14T23:58:30.281Z,14.50
